Time;durP1;ratioP1;P1;durP2;ratioP2;P2;SDS_P1;SDS_P2;PMS_P1;PMS_P2;Temp;Humidity;BMP_temperature;BMP_pressure;BME280_temperature;BME280_humidity;BME280_pressure;Samples;Min_cycle;Max_cycle;Signal;HPM_P1;HPM_P2
2021/08/11 00:00:58;;;;;;;11.73;5.80;;;;;;;20.45;100.00;98877.59;1701989;84;20966;-71
2021/08/11 00:03:33;;;;;;;9.35;4.40;;;;;;;20.41;100.00;98875.06;1701977;84;21161;-73
2021/08/11 00:06:02;;;;;;;7.58;4.95;;;;;;;20.39;100.00;98882.30;1701657;83;20918;-73
2021/08/11 00:08:30;;;;;;;8.00;4.65;;;;;;;20.36;100.00;98881.56;1701946;84;20971;-71
2021/08/11 00:11:00;;;;;;;6.55;4.67;;;;;;;20.33;100.00;98878.53;1702064;84;21523;-71
2021/08/11 00:13:29;;;;;;;9.10;5.00;;;;;;;20.30;100.00;98876.00;1701263;84;20970;-72
2021/08/11 00:15:58;;;;;;;8.15;4.53;;;;;;;20.28;100.00;98875.69;1701552;84;21013;-71
2021/08/11 00:18:28;;;;;;;6.70;5.33;;;;;;;20.25;100.00;98877.18;1701802;84;21046;-72
2021/08/11 00:20:55;;;;;;;7.10;4.80;;;;;;;20.23;100.00;98875.92;1700651;84;21074;-73
2021/08/11 00:23:25;;;;;;;9.08;5.10;;;;;;;20.22;100.00;98879.54;1700743;84;21017;-74
2021/08/11 00:25:54;;;;;;;8.25;4.83;;;;;;;20.23;100.00;98883.95;1701052;84;20998;-72
2021/08/11 00:28:22;;;;;;;7.17;4.65;;;;;;;20.22;100.00;98874.19;1700649;84;21142;-73
2021/08/11 00:30:51;;;;;;;9.30;5.20;;;;;;;20.21;100.00;98870.23;1702160;84;20903;-71
2021/08/11 00:33:22;;;;;;;6.72;4.60;;;;;;;20.19;100.00;98873.47;1702226;84;21425;-71
2021/08/11 00:35:50;;;;;;;11.30;4.97;;;;;;;20.16;100.00;98877.17;1700859;84;20991;-71
2021/08/11 00:38:20;;;;;;;6.97;4.42;;;;;;;20.14;100.00;98869.68;1700778;84;21057;-71
2021/08/11 00:40:53;;;;;;;8.70;4.60;;;;;;;20.12;100.00;98876.92;1700810;84;21197;-71
2021/08/11 00:43:23;;;;;;;7.85;4.95;;;;;;;20.08;100.00;98869.98;1700823;84;21084;-72
2021/08/11 00:45:51;;;;;;;5.90;4.58;;;;;;;20.04;100.00;98871.94;1668711;85;21541;-70
2021/08/11 00:48:21;;;;;;;6.50;4.20;;;;;;;20.03;100.00;98872.02;1675264;84;20919;-71
2021/08/11 00:50:52;;;;;;;10.32;4.95;;;;;;;20.00;100.00;98865.00;1702294;84;21045;-72
2021/08/11 00:53:26;;;;;;;5.85;4.78;;;;;;;19.97;100.00;98860.27;1676243;84;21513;-71
2021/08/11 00:55:55;;;;;;;6.37;4.22;;;;;;;19.95;100.00;98864.36;1700593;84;21014;-70
2021/08/11 00:58:24;;;;;;;5.95;4.83;;;;;;;19.92;100.00;98871.20;1676872;84;20938;-71
2021/08/11 01:00:57;;;;;;;5.90;4.28;;;;;;;19.89;100.00;98860.64;1700853;83;21037;-70
2021/08/11 01:03:26;;;;;;;6.87;4.95;;;;;;;19.87;100.00;98861.19;1670901;85;20978;-70
2021/08/11 01:05:59;;;;;;;6.50;4.37;;;;;;;19.84;100.00;98861.30;1691275;84;21139;-71
2021/08/11 01:08:29;;;;;;;8.20;4.47;;;;;;;19.84;100.00;98856.42;1677995;84;21733;-71
2021/08/11 01:10:58;;;;;;;8.95;4.40;;;;;;;19.82;100.00;98852.48;1702134;84;20942;-70
2021/08/11 01:13:27;;;;;;;7.25;4.97;;;;;;;19.80;100.00;98856.57;1702052;84;21445;-71
2021/08/11 01:15:56;;;;;;;8.33;4.60;;;;;;;19.79;100.00;98853.97;1701011;84;21005;-71
2021/08/11 01:18:25;;;;;;;5.90;4.05;;;;;;;19.77;100.00;98850.03;1700998;84;21100;-71
2021/08/11 01:21:17;;;;;;;5.30;4.20;;;;;;;19.75;100.00;98853.72;1701860;84;21508;-70
2021/08/11 01:24:10;;;;;;;6.10;4.58;;;;;;;19.72;100.00;98851.19;1694956;82;20954;-70
2021/08/11 01:27:17;;;;;;;6.62;4.83;;;;;;;19.67;100.00;98847.40;1679634;84;21433;-70
2021/08/11 01:30:17;;;;;;;8.15;4.70;;;;;;;19.67;100.00;98850.55;1679455;84;21009;-71
2021/08/11 01:32:57;;;;;;;6.83;4.30;;;;;;;19.63;100.00;98851.63;1679378;84;21481;-71
2021/08/11 01:35:41;;;;;;;6.50;4.75;;;;;;;19.56;100.00;98849.72;1703147;82;20932;-70
2021/08/11 01:38:13;;;;;;;5.83;4.55;;;;;;;19.54;100.00;98848.05;1707385;82;21439;-71
2021/08/11 01:40:50;;;;;;;5.83;4.35;;;;;;;19.53;100.00;98848.99;1671144;82;21450;-71
2021/08/11 01:43:21;;;;;;;7.30;4.78;;;;;;;19.49;100.00;98857.13;1707190;82;20928;-71
2021/08/11 01:45:50;;;;;;;7.50;4.62;;;;;;;19.46;100.00;98855.94;1692404;82;21161;-71
2021/08/11 01:48:27;;;;;;;9.13;4.95;;;;;;;19.42;100.00;98854.81;1707624;82;20928;-70
2021/08/11 01:50:57;;;;;;;7.30;4.85;;;;;;;19.40;100.00;98860.23;1705773;82;21043;-70
2021/08/11 01:53:26;;;;;;;10.78;4.67;;;;;;;19.38;100.00;98863.89;1698802;82;21005;-70
2021/08/11 01:55:56;;;;;;;12.33;4.78;;;;;;;19.35;100.00;98860.89;1699416;82;21688;-70
2021/08/11 01:58:29;;;;;;;7.53;4.70;;;;;;;19.34;100.00;98868.98;1730507;81;21165;-71
2021/08/11 02:01:01;;;;;;;5.63;4.67;;;;;;;19.33;100.00;98864.57;1730197;81;20938;-71
2021/08/11 02:03:30;;;;;;;6.67;4.22;;;;;;;19.35;100.00;98869.38;1698258;83;21039;-71
2021/08/11 02:06:00;;;;;;;7.17;4.70;;;;;;;19.36;100.00;98872.45;1734147;81;20890;-72
2021/08/11 02:08:28;;;;;;;7.30;4.40;;;;;;;19.35;100.00;98865.37;1709741;83;20946;-71
2021/08/11 02:11:00;;;;;;;6.05;4.65;;;;;;;19.32;100.00;98872.20;1678357;83;20995;-70
2021/08/11 02:13:31;;;;;;;6.85;4.60;;;;;;;19.30;100.00;98876.75;1711727;83;20859;-71
2021/08/11 02:16:02;;;;;;;5.87;4.53;;;;;;;19.27;100.00;98887.59;1697750;83;21776;-71
2021/08/11 02:18:31;;;;;;;11.88;5.28;;;;;;;19.27;100.00;98884.91;1730797;81;21465;-71
2021/08/11 02:21:02;;;;;;;8.95;4.70;;;;;;;19.25;100.00;98881.44;1730861;83;20945;-72
2021/08/11 02:23:31;;;;;;;8.88;4.80;;;;;;;19.25;100.00;98881.44;1728517;81;21152;-70
2021/08/11 02:26:29;;;;;;;7.33;4.87;;;;;;;19.25;100.00;98883.64;1727853;81;20958;-70
2021/08/11 02:29:30;;;;;;;7.10;4.92;;;;;;;19.26;100.00;98888.52;1688711;83;20916;-70
2021/08/11 02:32:25;;;;;;;10.18;5.10;;;;;;;19.27;100.00;98896.95;1693440;83;21539;-71
2021/08/11 02:35:13;;;;;;;7.00;5.03;;;;;;;19.25;100.00;98882.30;1700604;83;20885;-72
2021/08/11 02:38:15;;;;;;;8.08;5.17;;;;;;;19.23;100.00;98890.00;1731022;81;21159;-71
2021/08/11 02:41:02;;;;;;;7.90;4.90;;;;;;;19.18;100.00;98888.41;1686482;83;20936;-71
2021/08/11 02:43:54;;;;;;;12.63;5.20;;;;;;;19.17;100.00;98887.14;1701276;83;21052;-71
2021/08/11 02:46:26;;;;;;;5.75;4.55;;;;;;;19.14;100.00;98889.95;1728808;81;20922;-71
2021/08/11 02:49:05;;;;;;;9.65;5.20;;;;;;;19.12;100.00;98890.48;1731105;83;20886;-70
2021/08/11 02:51:36;;;;;;;6.60;4.90;;;;;;;19.13;100.00;98899.78;1730926;81;21448;-72
2021/08/11 02:54:12;;;;;;;6.75;4.28;;;;;;;19.12;100.00;98899.38;1731189;81;21037;-72
2021/08/11 02:56:48;;;;;;;12.63;4.55;;;;;;;19.10;100.00;98896.37;1706898;83;21437;-71
2021/08/11 02:59:14;;;;;;;7.45;4.72;;;;;;;19.08;100.00;98903.59;1724683;82;20890;-70
2021/08/11 03:01:43;;;;;;;7.47;4.97;;;;;;;19.06;100.00;98899.66;1725600;82;21018;-71
2021/08/11 03:04:12;;;;;;;8.90;4.40;;;;;;;19.04;100.00;98897.52;1704947;83;21549;-72
2021/08/11 03:06:42;;;;;;;9.20;4.40;;;;;;;19.04;100.00;98903.33;1727180;83;20961;-71
2021/08/11 03:09:11;;;;;;;4.78;4.22;;;;;;;19.03;100.00;98898.45;1705290;83;21186;-70
2021/08/11 03:11:39;;;;;;;7.70;4.17;;;;;;;19.03;100.00;98897.58;1725512;82;20839;-71
2021/08/11 03:14:08;;;;;;;5.50;4.00;;;;;;;19.05;100.00;98895.23;1724030;82;21422;-72
2021/08/11 03:16:38;;;;;;;7.85;4.22;;;;;;;19.07;100.00;98896.51;1703833;83;20922;-71
2021/08/11 03:19:07;;;;;;;10.38;4.58;;;;;;;19.08;100.00;98896.91;1723086;82;21111;-65
2021/08/11 03:21:35;;;;;;;6.37;4.45;;;;;;;19.07;100.00;98900.52;1723566;82;20990;-63
2021/08/11 03:24:05;;;;;;;8.65;4.75;;;;;;;19.08;100.00;98903.13;1705771;83;20970;-63
2021/08/11 03:26:33;;;;;;;9.48;4.80;;;;;;;19.08;100.00;98907.13;1723122;82;21516;-64
2021/08/11 03:29:01;;;;;;;12.47;4.55;;;;;;;19.08;100.00;98908.94;1723049;83;21165;-63
2021/08/11 03:31:30;;;;;;;10.28;4.58;;;;;;;19.08;100.00;98911.14;1724494;83;21413;-62
2021/08/11 03:33:58;;;;;;;9.53;4.40;;;;;;;19.11;100.00;98916.82;1694732;83;21056;-64
2021/08/11 03:36:27;;;;;;;7.28;4.70;;;;;;;19.14;100.00;98918.89;1724669;83;20939;-65
2021/08/11 03:38:58;;;;;;;5.37;4.27;;;;;;;19.19;100.00;98918.69;1704350;83;21424;-65
2021/08/11 03:41:26;;;;;;;6.17;4.78;;;;;;;19.22;100.00;98919.89;1692788;83;21142;-65
2021/08/11 03:43:55;;;;;;;6.70;4.70;;;;;;;19.26;100.00;98919.28;1724428;83;20878;-63
2021/08/11 03:46:25;;;;;;;9.65;5.08;;;;;;;19.26;100.00;98920.61;1722805;82;21056;-65
2021/08/11 03:48:53;;;;;;;8.15;4.87;;;;;;;19.29;100.00;98920.48;1725111;83;20950;-65
2021/08/11 03:51:22;;;;;;;5.20;4.67;;;;;;;19.30;100.00;98913.72;1695049;83;21400;-64
2021/08/11 03:53:51;;;;;;;5.10;4.20;;;;;;;19.34;100.00;98918.46;1724690;81;21919;-63
2021/08/11 03:56:19;;;;;;;8.08;4.85;;;;;;;19.36;100.00;98912.11;1724974;81;20950;-64
2021/08/11 03:58:47;;;;;;;7.33;4.90;;;;;;;19.41;100.00;98908.78;1677459;82;21018;-65
2021/08/11 04:01:18;;;;;;;9.53;4.92;;;;;;;19.47;100.00;98907.63;1696125;82;21024;-63
2021/08/11 04:03:46;;;;;;;9.35;5.12;;;;;;;19.52;100.00;98915.45;1707820;82;21099;-62
2021/08/11 04:06:14;;;;;;;10.03;5.00;;;;;;;19.55;100.00;98909.52;1705697;82;21161;-62
2021/08/11 04:08:46;;;;;;;8.25;4.80;;;;;;;19.59;100.00;98910.24;1708248;82;21018;-63
2021/08/11 04:11:15;;;;;;;8.43;5.45;;;;;;;19.64;100.00;98914.91;1708249;82;21494;-61
2021/08/11 04:13:43;;;;;;;8.38;4.65;;;;;;;19.68;100.00;98919.18;1707823;82;20912;-59
2021/08/11 04:16:12;;;;;;;6.42;4.47;;;;;;;19.72;100.00;98919.44;1705176;82;21559;-59
2021/08/11 04:18:40;;;;;;;5.50;4.37;;;;;;;19.77;100.00;98926.30;1707680;82;21170;-59
2021/08/11 04:21:08;;;;;;;6.58;4.53;;;;;;;19.83;100.00;98926.48;1707495;82;20896;-61
2021/08/11 04:23:37;;;;;;;8.88;4.60;;;;;;;19.92;100.00;98926.55;1714918;83;21521;-60
2021/08/11 04:26:05;;;;;;;8.15;4.15;;;;;;;19.98;100.00;98928.94;1737782;82;20954;-65
2021/08/11 04:28:32;;;;;;;7.67;5.08;;;;;;;20.05;100.00;98930.38;1744607;82;20934;-66
2021/08/11 04:31:01;;;;;;;7.65;4.80;;;;;;;20.11;100.00;98926.94;1745834;82;21150;-65
2021/08/11 04:33:28;;;;;;;5.42;4.37;;;;;;;20.17;100.00;98932.46;1697234;82;20871;-66
2021/08/11 04:35:55;;;;;;;7.10;4.97;;;;;;;20.23;100.00;98928.62;1708024;82;20940;-66
2021/08/11 04:38:23;;;;;;;7.10;5.35;;;;;;;20.28;100.00;98926.11;1707994;82;21091;-66
2021/08/11 04:40:51;;;;;;;6.58;5.47;;;;;;;20.32;100.00;98919.66;1705872;82;21617;-66
2021/08/11 04:43:18;;;;;;;7.75;5.08;;;;;;;20.37;100.00;98920.80;1703347;82;21160;-66
2021/08/11 04:45:49;;;;;;;8.23;4.70;;;;;;;20.40;100.00;98918.87;1746002;82;21505;-67
2021/08/11 04:48:17;;;;;;;8.15;4.87;;;;;;;20.46;100.00;98923.05;1732841;81;20944;-66
2021/08/11 04:50:48;;;;;;;6.05;4.35;;;;;;;20.52;100.00;98925.90;1727770;82;21472;-67
2021/08/11 04:53:17;;;;;;;8.10;4.67;;;;;;;20.58;100.00;98927.80;1729105;82;20978;-67
2021/08/11 04:55:44;;;;;;;6.25;4.22;;;;;;;20.65;100.00;98931.91;1708470;82;21174;-66
2021/08/11 04:58:11;;;;;;;6.17;4.05;;;;;;;20.70;100.00;98932.53;1756246;81;20943;-66
2021/08/11 05:00:39;;;;;;;6.53;4.95;;;;;;;20.79;100.00;98934.36;1754791;81;20879;-67
2021/08/11 05:03:07;;;;;;;8.00;4.47;;;;;;;20.83;100.00;98930.12;1707192;82;20916;-66
2021/08/11 05:05:35;;;;;;;7.28;4.25;;;;;;;20.91;100.00;98924.38;1707113;82;20987;-66
2021/08/11 05:08:03;;;;;;;7.80;4.40;;;;;;;20.96;100.00;98925.00;1688947;83;21101;-65
2021/08/11 05:10:30;;;;;;;10.63;4.33;;;;;;;21.01;100.00;98917.58;1702205;84;20942;-65
2021/08/11 05:12:58;;;;;;;7.67;4.20;;;;;;;21.07;100.00;98922.62;1713844;83;21428;-66
2021/08/11 05:15:26;;;;;;;4.55;3.85;;;;;;;21.15;100.00;98923.56;1696786;84;20956;-66
2021/08/11 05:17:54;;;;;;;5.45;3.98;;;;;;;21.21;100.00;98922.77;1687603;84;21103;-67
2021/08/11 05:20:22;;;;;;;6.65;4.08;;;;;;;21.26;100.00;98923.42;1687056;85;21854;-66
2021/08/11 05:22:51;;;;;;;7.92;4.60;;;;;;;21.32;100.00;98921.78;1686701;84;21463;-66
2021/08/11 05:25:19;;;;;;;6.37;4.33;;;;;;;21.39;100.00;98922.33;1698537;83;20877;-66
2021/08/11 05:27:46;;;;;;;6.33;4.33;;;;;;;21.45;100.00;98914.41;1710077;83;21507;-66
2021/08/11 05:30:14;;;;;;;5.60;4.55;;;;;;;21.51;100.00;98914.08;1710074;83;20979;-66
2021/08/11 05:32:42;;;;;;;23.65;5.00;;;;;;;21.58;100.00;98912.80;1701680;84;21148;-66
2021/08/11 05:35:10;;;;;;;10.80;3.87;;;;;;;21.64;100.00;98902.59;1701595;84;20932;-66
2021/08/11 05:37:40;;;;;;;8.68;4.62;;;;;;;21.69;100.00;98899.17;1698699;84;20952;-66
2021/08/11 05:40:09;;;;;;;6.20;4.20;;;;;;;21.78;100.00;98896.97;1698722;84;21014;-66
2021/08/11 05:42:37;;;;;;;6.30;3.90;;;;;;;21.87;100.00;98901.82;1699865;84;21456;-67
2021/08/11 05:45:06;;;;;;;6.45;4.30;;;;;;;21.97;100.00;98890.47;1701670;84;21060;-67
2021/08/11 05:47:35;;;;;;;7.92;3.80;;;;;;;22.08;100.00;98883.17;1701960;84;20963;-66
2021/08/11 05:50:04;;;;;;;16.60;4.65;;;;;;;22.17;100.00;98888.50;1701602;84;20964;-66
2021/08/11 05:52:31;;;;;;;5.05;3.90;;;;;;;22.26;100.00;98882.63;1701913;84;20904;-67
2021/08/11 05:54:58;;;;;;;5.60;3.83;;;;;;;22.35;100.00;98886.13;1701659;84;21003;-67
2021/08/11 05:57:26;;;;;;;6.78;3.50;;;;;;;22.45;100.00;98881.08;1698111;84;21160;-66
2021/08/11 05:59:54;;;;;;;5.20;3.72;;;;;;;22.52;100.00;98877.94;1683885;83;21006;-67
2021/08/11 06:02:22;;;;;;;6.28;3.67;;;;;;;22.59;100.00;98880.64;1706685;82;21016;-67
2021/08/11 06:04:51;;;;;;;5.00;3.60;;;;;;;22.69;100.00;98872.90;1703498;82;21032;-66
2021/08/11 06:07:20;;;;;;;10.35;3.55;;;;;;;22.78;100.00;98868.82;1675062;84;20951;-67
2021/08/11 06:09:48;;;;;;;4.92;3.70;;;;;;;22.87;100.00;98870.98;1688319;83;21174;-67
2021/08/11 06:12:16;;;;;;;5.65;3.55;;;;;;;22.96;100.00;98869.56;1682513;85;20990;-67
2021/08/11 06:14:45;;;;;;;5.50;3.30;;;;;;;23.04;100.00;98872.65;1656261;85;21002;-67
2021/08/11 06:17:13;;;;;;;4.17;3.20;;;;;;;23.13;100.00;98876.98;1701590;82;21015;-68
2021/08/11 06:19:43;;;;;;;5.47;3.58;;;;;;;23.22;100.00;98873.75;1694443;82;21560;-67
2021/08/11 06:22:10;;;;;;;4.12;3.30;;;;;;;23.31;100.00;98872.80;1703451;83;21244;-68
2021/08/11 06:24:38;;;;;;;4.78;3.50;;;;;;;23.41;100.00;98867.22;1701481;83;20892;-63
2021/08/11 06:27:06;;;;;;;6.78;3.70;;;;;;;23.51;100.00;98869.23;1676788;84;20964;-68
2021/08/11 06:29:34;;;;;;;3.87;3.30;;;;;;;23.61;100.00;98870.03;1675384;84;20957;-67
2021/08/11 06:32:02;;;;;;;4.78;3.40;;;;;;;23.72;100.00;98868.41;1705224;82;20913;-67
2021/08/11 06:34:30;;;;;;;5.30;3.37;;;;;;;23.83;100.00;98865.02;1699838;83;21159;-67
2021/08/11 06:36:58;;;;;;;6.58;3.22;;;;;;;23.93;100.00;98869.33;1699861;83;21528;-67
2021/08/11 06:39:26;;;;;;;5.83;3.00;;;;;;;24.01;100.00;98869.21;1699941;83;21457;-68
2021/08/11 06:41:54;;;;;;;8.15;3.85;;;;;;;24.08;100.00;98869.19;1699735;83;21001;-66
2021/08/11 06:44:24;;;;;;;4.28;2.83;;;;;;;24.15;100.00;98865.64;1699498;83;20994;-67
2021/08/11 06:46:52;;;;;;;4.65;3.25;;;;;;;24.20;100.00;98860.81;1672650;84;21156;-67
2021/08/11 06:49:23;;;;;;;;;;;;;;;24.30;100.00;98865.14;1701608;83;21564;-66
2021/08/11 06:51:53;;;;;;;6.20;3.80;;;;;;;24.40;100.00;98865.77;1699812;84;20130;-66
2021/08/11 06:54:22;;;;;;;6.37;4.22;;;;;;;24.50;100.00;98864.66;1700230;83;20955;-65
2021/08/11 06:56:51;;;;;;;6.83;3.77;;;;;;;24.60;100.00;98861.76;1699986;83;21398;-65
2021/08/11 06:59:20;;;;;;;5.78;3.55;;;;;;;24.70;100.00;98861.99;1699849;83;21143;-65
2021/08/11 07:01:48;;;;;;;3.30;3.00;;;;;;;24.79;100.00;98864.92;1700226;83;20978;-66
2021/08/11 07:04:16;;;;;;;4.53;3.05;;;;;;;24.90;100.00;98862.83;1701561;83;20990;-66
2021/08/11 07:06:46;;;;;;;3.70;2.90;;;;;;;25.02;100.00;98870.11;1701437;83;20950;-65
2021/08/11 07:09:16;;;;;;;9.53;3.17;;;;;;;25.14;100.00;98872.95;1701462;83;20970;-65
2021/08/11 07:11:45;;;;;;;6.28;3.50;;;;;;;25.24;100.00;98869.98;1701296;84;21141;-65
2021/08/11 07:14:14;;;;;;;3.83;2.72;;;;;;;25.38;100.00;98875.27;1675862;84;20978;-66
2021/08/11 07:16:44;;;;;;;2.90;2.60;;;;;;;25.51;100.00;98871.20;1701417;83;21005;-66
2021/08/11 07:19:14;;;;;;;3.50;2.70;;;;;;;25.62;100.00;98865.44;1700387;83;21509;-65
2021/08/11 07:21:41;;;;;;;7.45;2.95;;;;;;;25.75;100.00;98864.09;1700951;83;21045;-66
2021/08/11 07:24:09;;;;;;;6.95;2.70;;;;;;;25.87;100.00;98859.14;1700215;84;21394;-65
2021/08/11 07:26:37;;;;;;;3.37;2.65;;;;;;;26.00;100.00;98857.75;1700083;84;20934;-66
2021/08/11 07:29:05;;;;;;;3.87;2.52;;;;;;;26.12;100.00;98856.88;1700354;84;21449;-66
2021/08/11 07:31:33;;;;;;;2.87;2.30;;;;;;;26.21;100.00;98865.66;1699994;84;20931;-66
2021/08/11 07:34:01;;;;;;;5.75;2.80;;;;;;;26.31;100.00;98865.34;1700284;84;21710;-65
2021/08/11 07:36:30;;;;;;;5.80;2.70;;;;;;;26.42;100.00;98856.94;1699951;84;21289;-65
2021/08/11 07:38:58;;;;;;;3.35;2.87;;;;;;;26.51;100.00;98863.03;1699927;84;20875;-65
2021/08/11 07:41:26;;;;;;;3.87;2.02;;;;;;;26.61;100.00;98861.35;1699942;84;20951;-64
2021/08/11 07:43:54;;;;;;;8.65;2.35;;;;;;;26.69;100.00;98861.62;1700601;83;20945;-65
2021/08/11 07:46:24;;;;;;;6.40;2.90;;;;;;;26.75;100.00;98859.80;1698360;83;21000;-65
2021/08/11 07:48:53;;;;;;;2.22;2.00;;;;;;;26.84;100.00;98860.44;1699613;83;21158;-65
2021/08/11 07:51:21;;;;;;;4.70;2.50;;;;;;;26.90;100.00;98858.61;1698172;84;20910;-66
2021/08/11 07:53:48;;;;;;;2.58;2.35;;;;;;;26.96;100.00;98861.34;1698357;84;20895;-65
2021/08/11 07:56:16;;;;;;;3.62;2.12;;;;;;;27.01;100.00;98855.63;1698258;83;20926;-65
2021/08/11 07:58:44;;;;;;;2.70;1.90;;;;;;;27.08;100.00;98856.88;1704030;83;20934;-66
2021/08/11 08:01:12;;;;;;;3.80;1.90;;;;;;;27.11;100.00;98856.14;1713561;83;21221;-64
2021/08/11 08:03:42;;;;;;;3.75;2.10;;;;;;;27.18;100.00;98851.10;1714719;82;20889;-65
2021/08/11 08:06:10;;;;;;;4.80;1.92;;;;;;;27.25;100.00;98847.79;1715480;82;21021;-64
2021/08/11 08:08:39;;;;;;;5.17;2.30;;;;;;;27.33;100.00;98851.23;1714826;82;20916;-64
2021/08/11 08:11:08;;;;;;;8.35;2.08;;;;;;;27.42;100.00;98846.94;1714544;82;21021;-63
2021/08/11 08:13:36;;;;;;;3.25;1.70;;;;;;;27.50;100.00;98840.44;1714825;82;21342;-63
2021/08/11 08:16:04;;;;;;;3.65;2.00;;;;;;;27.59;100.00;98835.63;1691602;82;21082;-65
2021/08/11 08:18:33;;;;;;;2.50;1.65;;;;;;;27.67;100.00;98838.62;1705878;81;20922;-63
2021/08/11 08:21:03;;;;;;;2.37;1.67;;;;;;;27.75;100.00;98832.08;1724617;82;21626;-64
2021/08/11 08:23:31;;;;;;;2.30;1.75;;;;;;;27.82;97.81;98826.52;1713978;82;20861;-64
2021/08/11 08:25:59;;;;;;;2.02;1.60;;;;;;;27.88;97.17;98829.22;1737577;81;22003;-65
2021/08/11 08:28:28;;;;;;;2.20;1.67;;;;;;;27.95;96.10;98829.12;1722997;81;21120;-65
2021/08/11 08:30:56;;;;;;;4.28;1.60;;;;;;;28.01;94.09;98835.88;1713810;83;21447;-64
2021/08/11 08:33:25;;;;;;;109.17;6.00;;;;;;;28.07;96.58;98837.59;1714055;82;21518;-65
2021/08/11 08:35:53;;;;;;;3.25;1.80;;;;;;;28.16;96.87;98830.54;1689885;82;20928;-65
2021/08/11 08:38:21;;;;;;;3.20;1.50;;;;;;;28.26;97.90;98830.17;1714702;82;21825;-66
2021/08/11 08:40:48;;;;;;;3.83;1.92;;;;;;;28.34;92.34;98826.31;1714383;82;21496;-64
2021/08/11 08:43:16;;;;;;;5.17;1.92;;;;;;;28.42;90.45;98829.77;1703247;83;21023;-66
2021/08/11 08:45:45;;;;;;;2.83;2.08;;;;;;;28.49;91.48;98819.63;1723425;81;20874;-65
2021/08/11 08:48:12;;;;;;;4.15;2.00;;;;;;;28.62;93.01;98822.66;1742224;82;20935;-65
2021/08/11 08:50:41;;;;;;;2.35;1.90;;;;;;;28.69;89.73;98815.20;1741205;81;21907;-65
2021/08/11 08:53:09;;;;;;;3.62;1.67;;;;;;;28.77;88.14;98815.91;1727440;80;20981;-65
2021/08/11 08:55:37;;;;;;;2.12;1.85;;;;;;;28.86;88.62;98809.75;1745229;80;21012;-65
2021/08/11 08:58:05;;;;;;;3.65;1.80;;;;;;;28.92;87.51;98805.14;1742463;82;20989;-65
2021/08/11 09:00:35;;;;;;;2.27;1.70;;;;;;;29.00;88.27;98809.91;1744415;82;21504;-67
2021/08/11 09:03:04;;;;;;;6.35;2.05;;;;;;;29.04;81.19;98814.93;1744213;82;21136;-65
2021/08/11 09:05:31;;;;;;;3.33;1.80;;;;;;;29.09;79.22;98814.53;1725317;82;20998;-65
2021/08/11 09:07:59;;;;;;;2.42;1.60;;;;;;;29.12;76.10;98815.62;1744339;81;20923;-66
2021/08/11 09:10:30;;;;;;;1.77;1.45;;;;;;;29.15;74.89;98803.98;1744349;82;21407;-65
2021/08/11 09:12:59;;;;;;;3.33;1.42;;;;;;;29.22;76.29;98807.02;1745087;82;20931;-64
2021/08/11 09:15:35;;;;;;;2.17;1.77;;;;;;;29.31;78.10;98805.34;1693041;82;21151;-65
2021/08/11 09:18:22;;;;;;;1.60;1.50;;;;;;;29.41;77.84;98805.78;1682501;84;20946;-66
2021/08/11 09:21:09;;;;;;;2.75;1.50;;;;;;;29.51;77.99;98802.28;1686368;82;20909;-66
2021/08/11 09:23:39;;;;;;;2.00;1.50;;;;;;;29.59;76.80;98797.02;1707721;82;20922;-66
2021/08/11 09:26:09;;;;;;;2.00;1.67;;;;;;;29.71;78.22;98808.14;1708090;82;20954;-66
2021/08/11 09:28:40;;;;;;;2.52;1.70;;;;;;;29.83;78.26;98801.62;1745961;82;21824;-66
2021/08/11 09:31:31;;;;;;;4.37;1.67;;;;;;;29.94;75.37;98799.28;1745678;81;20959;-65
2021/08/11 09:34:02;;;;;;;3.52;1.55;;;;;;;30.03;71.99;98801.19;1744773;82;20923;-66
2021/08/11 09:36:49;;;;;;;2.40;1.70;;;;;;;30.09;71.21;98804.70;1706519;83;20965;-65
2021/08/11 09:39:18;;;;;;;2.10;1.50;;;;;;;30.17;70.90;98802.64;1706902;83;20957;-66
2021/08/11 09:42:04;;;;;;;4.45;1.60;;;;;;;30.26;71.03;98797.20;1706428;84;21195;-67
2021/08/11 09:44:33;;;;;;;3.83;1.75;;;;;;;30.30;65.39;98789.16;1706587;84;21078;-66
2021/08/11 09:47:32;;;;;;;3.65;1.82;;;;;;;30.36;67.87;98798.10;1706431;83;20853;-67
2021/08/11 09:50:09;;;;;;;3.20;1.55;;;;;;;30.42;67.66;98789.01;1725338;83;20958;-67
2021/08/11 09:52:48;;;;;;;16.67;2.45;;;;;;;30.52;68.69;98783.91;1719049;83;20941;-66
2021/08/11 09:55:17;;;;;;;2.80;1.62;;;;;;;30.63;69.71;98792.47;1725455;83;22429;-66
2021/08/11 09:57:45;;;;;;;2.35;1.57;;;;;;;30.74;71.23;98795.53;1724211;82;21005;-65
2021/08/11 10:00:14;;;;;;;2.08;1.70;;;;;;;30.81;67.74;98789.39;1723739;83;21563;-65
2021/08/11 10:02:48;;;;;;;3.12;1.80;;;;;;;30.86;65.42;98799.34;1723204;82;21052;-67
2021/08/11 10:05:37;;;;;;;2.17;1.60;;;;;;;30.94;64.93;98791.30;1710005;83;20966;-66
2021/08/11 10:08:06;;;;;;;3.62;1.60;;;;;;;31.05;65.00;98788.91;1724281;83;21813;-65
2021/08/11 10:10:48;;;;;;;3.02;1.60;;;;;;;31.17;66.05;98794.56;1724836;83;20918;-64
2021/08/11 10:13:21;;;;;;;3.47;1.90;;;;;;;31.27;64.66;98788.61;1748423;82;20948;-64
2021/08/11 10:15:49;;;;;;;3.35;1.70;;;;;;;31.37;61.98;98790.44;1768910;81;20867;-64
2021/08/11 10:18:26;;;;;;;2.30;1.30;;;;;;;31.42;61.76;98779.94;1763484;81;20887;-64
2021/08/11 10:20:59;;;;;;;2.02;1.40;;;;;;;31.43;59.74;98785.24;1732822;82;21106;-66
2021/08/11 10:23:29;;;;;;;9.90;1.87;;;;;;;31.49;60.40;98779.19;1733049;82;21862;-65
2021/08/11 10:25:58;;;;;;;3.22;1.70;;;;;;;31.53;60.26;98776.52;1734933;82;20938;-64
2021/08/11 10:28:27;;;;;;;3.12;1.55;;;;;;;31.56;56.96;98778.08;1747943;81;21501;-65
2021/08/11 10:30:57;;;;;;;6.45;1.85;;;;;;;31.55;57.33;98777.22;1728625;81;21013;-65
2021/08/11 10:33:24;;;;;;;4.53;1.52;;;;;;;31.58;58.56;98776.06;1723925;83;21137;-67
2021/08/11 10:35:53;;;;;;;5.15;1.67;;;;;;;31.67;59.18;98779.75;1724845;82;20999;-65
2021/08/11 10:38:21;;;;;;;1.85;1.55;;;;;;;31.73;57.86;98783.30;1715747;83;21001;-65
2021/08/11 10:40:52;;;;;;;4.20;2.05;;;;;;;31.80;56.23;98783.03;1723818;83;21486;-66
2021/08/11 10:43:21;;;;;;;2.75;1.90;;;;;;;31.84;54.76;98773.53;1722718;82;21410;-65
2021/08/11 10:45:59;;;;;;;3.12;1.70;;;;;;;31.82;53.64;98774.20;1723822;83;21135;-65
2021/08/11 10:48:27;;;;;;;3.33;1.45;;;;;;;31.79;53.88;98778.59;1721092;82;21402;-65
2021/08/11 10:50:56;;;;;;;5.12;1.77;;;;;;;31.83;54.63;98775.41;1720339;82;21518;-67
2021/08/11 10:53:25;;;;;;;1.80;1.60;;;;;;;31.90;54.15;98771.05;1750947;81;20891;-68
2021/08/11 10:55:57;;;;;;;4.42;1.95;;;;;;;31.96;52.12;98773.67;1737758;82;20855;-68
2021/08/11 10:58:44;;;;;;;3.02;1.65;;;;;;;32.02;51.59;98770.83;1746759;81;21753;-69
2021/08/11 11:01:32;;;;;;;21.48;2.60;;;;;;;32.07;50.84;98758.95;1737254;81;21403;-68
2021/08/11 11:04:03;;;;;;;2.62;1.52;;;;;;;32.10;50.09;98769.05;1736947;81;20967;-69
2021/08/11 11:06:51;;;;;;;4.20;1.50;;;;;;;32.19;49.34;98760.47;1725976;83;20879;-68
2021/08/11 11:09:22;;;;;;;9.03;2.00;;;;;;;32.24;47.95;98764.48;1765078;80;21072;-66
2021/08/11 11:11:50;;;;;;;56.45;2.37;;;;;;;32.29;48.84;98771.34;1771165;80;21132;-67
2021/08/11 11:14:56;;;;;;;11.15;1.85;;;;;;;32.32;49.18;98765.06;1765235;80;21076;-67
2021/08/11 11:17:25;;;;;;;3.85;1.70;;;;;;;32.37;49.38;98768.69;1770232;80;21005;-67
2021/08/11 11:20:16;;;;;;;3.00;1.60;;;;;;;32.40;49.06;98771.95;1771710;80;21495;-68
2021/08/11 11:22:54;;;;;;;5.72;2.30;;;;;;;32.42;48.11;98769.92;1768993;80;20953;-68
2021/08/11 11:25:59;;;;;;;8.03;2.17;;;;;;;32.45;46.91;98777.80;1768049;80;21516;-67
2021/08/11 11:28:59;;;;;;;4.42;2.00;;;;;;;32.51;48.36;98779.05;1744070;81;20877;-69
2021/08/11 11:31:53;;;;;;;2.52;1.80;;;;;;;32.54;48.90;98780.95;1772649;80;20990;-68
2021/08/11 11:34:32;;;;;;;3.12;1.92;;;;;;;32.61;48.13;98778.45;1742766;81;21040;-69
2021/08/11 11:37:05;;;;;;;4.20;1.80;;;;;;;32.67;47.17;98774.27;1769139;80;21479;-70
2021/08/11 11:39:43;;;;;;;5.08;2.05;;;;;;;32.74;47.16;98776.70;1742968;81;21121;-69
2021/08/11 11:42:22;;;;;;;4.42;2.30;;;;;;;32.74;46.97;98774.83;1768708;80;20991;-67
2021/08/11 11:45:00;;;;;;;4.15;2.02;;;;;;;32.78;47.84;98772.16;1770539;80;20899;-67
2021/08/11 11:47:46;;;;;;;2.90;1.70;;;;;;;32.86;48.31;98770.00;1766631;80;20984;-67